Time,TemperatureF,DewpointF,PressureIn,WindDirection,WindDirectionDegrees,WindSpeedMPH,WindSpeedGustMPH,Humidity,HourlyPrecipIn,Conditions,Clouds,dailyrainin,SoftwareType,DateUTC
2013-11-17 00:07:00,50.0,48.6,29.09,West,270,2.2,-999.0,95,-99.99,,,0.00,Acu-Link.com,2013-11-17 05:07:00,
2013-11-17 00:22:00,50.2,48.8,29.08,ESE,112,0.0,-999.0,95,-99.99,,,0.00,Acu-Link.com,2013-11-17 05:22:00,
2013-11-17 00:38:00,50.4,49.0,29.08,SW,225,2.2,-999.0,95,-99.99,,,0.00,Acu-Link.com,2013-11-17 05:38:00,
2013-11-17 00:53:00,50.2,48.8,29.08,ENE,67,0.0,-999.0,95,-99.99,,,0.00,Acu-Link.com,2013-11-17 05:53:00,
2013-11-17 01:08:00,50.5,48.8,29.08,ENE,67,0.0,-999.0,94,-99.99,,,0.00,Acu-Link.com,2013-11-17 06:08:00,
2013-11-17 01:24:00,50.9,48.9,29.08,ENE,67,0.0,-999.0,93,-99.99,,,0.00,Acu-Link.com,2013-11-17 06:24:00,
2013-11-17 01:39:00,50.9,48.9,29.07,East,90,0.0,-999.0,93,-99.99,,,0.00,Acu-Link.com,2013-11-17 06:39:00,
2013-11-17 01:54:00,51.4,49.4,29.07,East,90,1.7,-999.0,93,-99.99,,,0.00,Acu-Link.com,2013-11-17 06:54:00,
2013-11-17 02:10:00,51.4,49.4,29.06,East,90,2.7,-999.0,93,-99.99,,,0.00,Acu-Link.com,2013-11-17 07:10:00,
2013-11-17 02:25:00,51.4,49.4,29.07,East,90,0.0,-999.0,93,-99.99,,,0.00,Acu-Link.com,2013-11-17 07:25:00,
2013-11-17 02:40:00,50.7,49.0,29.07,East,90,0.0,-999.0,94,-99.99,,,0.00,Acu-Link.com,2013-11-17 07:40:00,
2013-11-17 02:55:00,50.5,48.8,29.07,ENE,67,2.2,-999.0,94,-99.99,,,0.00,Acu-Link.com,2013-11-17 07:55:00,
2013-11-17 03:11:00,50.9,49.5,29.05,East,90,1.7,-999.0,95,-99.99,,,0.00,Acu-Link.com,2013-11-17 08:11:00,
2013-11-17 03:26:00,50.4,49.0,29.06,West,270,0.0,-999.0,95,-99.99,,,0.00,Acu-Link.com,2013-11-17 08:26:00,
2013-11-17 03:41:00,51.1,49.7,29.06,East,90,0.0,-999.0,95,-99.99,,,0.00,Acu-Link.com,2013-11-17 08:41:00,
2013-11-17 03:57:00,51.6,49.6,29.06,ESE,112,2.7,-999.0,93,-99.99,,,0.00,Acu-Link.com,2013-11-17 08:57:00,
2013-11-17 04:12:00,51.6,49.6,29.05,ESE,112,1.7,-999.0,93,-99.99,,,0.00,Acu-Link.com,2013-11-17 09:12:00,
2013-11-17 04:27:00,51.6,49.6,29.05,ENE,67,0.0,-999.0,93,-99.99,,,0.00,Acu-Link.com,2013-11-17 09:27:00,
2013-11-17 04:43:00,51.8,49.6,29.04,East,90,2.7,-999.0,92,-99.99,,,0.00,Acu-Link.com,2013-11-17 09:43:00,
2013-11-17 04:58:00,52.0,49.7,29.05,East,90,0.0,-999.0,92,-99.99,,,0.00,Acu-Link.com,2013-11-17 09:58:00,
2013-11-17 05:13:00,52.0,49.7,29.04,NNE,22,0.0,-999.0,92,-99.99,,,0.00,Acu-Link.com,2013-11-17 10:13:00,
2013-11-17 05:28:00,51.8,49.8,29.04,East,90,2.2,-999.0,93,-99.99,,,0.00,Acu-Link.com,2013-11-17 10:28:00,
2013-11-17 05:44:00,51.8,50.1,29.04,ESE,112,1.1,-999.0,94,-99.99,,,0.00,Acu-Link.com,2013-11-17 10:44:00,
2013-11-17 05:59:00,51.8,50.1,29.03,ESE,112,2.2,-999.0,94,-99.99,,,0.00,Acu-Link.com,2013-11-17 10:59:00,
2013-11-17 06:14:00,51.8,50.1,29.03,ESE,112,0.0,-999.0,94,-99.99,,,0.00,Acu-Link.com,2013-11-17 11:14:00,
2013-11-17 06:30:00,51.6,49.9,29.04,ESE,112,1.7,-999.0,94,-99.99,,,0.00,Acu-Link.com,2013-11-17 11:30:00,
2013-11-17 06:45:00,51.6,50.2,29.03,East,90,2.2,-999.0,95,-99.99,,,0.00,Acu-Link.com,2013-11-17 11:45:00,
2013-11-17 07:00:00,51.8,50.4,29.03,ESE,112,2.7,-999.0,95,-99.99,,,0.00,Acu-Link.com,2013-11-17 12:00:00,
2013-11-17 07:16:00,52.0,50.6,29.02,East,90,0.0,-999.0,95,-99.99,,,0.00,Acu-Link.com,2013-11-17 12:16:00,
2013-11-17 07:31:00,52.2,51.1,29.02,ESE,112,2.2,-999.0,96,-99.99,,,0.00,Acu-Link.com,2013-11-17 12:31:00,
2013-11-17 07:46:00,52.3,51.2,29.03,ENE,67,0.0,-999.0,96,-99.99,,,0.00,Acu-Link.com,2013-11-17 12:46:00,
2013-11-17 08:01:00,52.7,51.6,29.03,ESE,112,1.7,-999.0,96,-99.99,,,0.00,Acu-Link.com,2013-11-17 13:01:00,
2013-11-17 08:17:00,53.2,51.8,29.02,East,90,2.2,-999.0,95,-99.99,,,0.00,Acu-Link.com,2013-11-17 13:17:00,
2013-11-17 08:32:00,53.6,52.2,29.02,ESE,112,1.1,-999.0,95,-99.99,,,0.00,Acu-Link.com,2013-11-17 13:32:00,
2013-11-17 08:47:00,54.0,52.3,29.02,East,90,0.0,-999.0,94,-99.99,,,0.00,Acu-Link.com,2013-11-17 13:47:00,
2013-11-17 09:03:00,54.5,52.8,29.02,ESE,112,1.7,-999.0,94,-99.99,,,0.00,Acu-Link.com,2013-11-17 14:03:00,
2013-11-17 09:18:00,54.9,52.9,29.02,East,90,0.0,-999.0,93,-99.99,,,0.00,Acu-Link.com,2013-11-17 14:18:00,
2013-11-17 09:33:00,55.0,53.0,29.01,ENE,67,2.2,-999.0,93,-99.99,,,0.00,Acu-Link.com,2013-11-17 14:33:00,
2013-11-17 09:49:00,55.4,53.4,29.01,East,90,0.0,-999.0,93,-99.99,,,0.00,Acu-Link.com,2013-11-17 14:49:00,
2013-11-17 10:04:00,55.6,53.6,29.01,ESE,112,0.0,-999.0,93,-99.99,,,0.00,Acu-Link.com,2013-11-17 15:04:00,
2013-11-17 10:19:00,55.9,54.2,29.01,ESE,112,0.0,-999.0,94,-99.99,,,0.00,Acu-Link.com,2013-11-17 15:19:00,
2013-11-17 10:34:00,56.1,54.1,29.00,ESE,112,1.7,-999.0,93,-99.99,,,0.00,Acu-Link.com,2013-11-17 15:34:00,
2013-11-17 10:50:00,56.3,54.0,28.99,ESE,112,1.1,-999.0,92,-99.99,,,0.00,Acu-Link.com,2013-11-17 15:50:00,
2013-11-17 11:05:00,56.7,54.4,28.98,East,90,0.0,-999.0,92,-99.99,,,0.00,Acu-Link.com,2013-11-17 16:05:00,
2013-11-17 11:20:00,56.3,54.6,28.98,ESE,112,0.0,-999.0,94,-99.99,,,0.00,Acu-Link.com,2013-11-17 16:20:00,
2013-11-17 11:36:00,56.7,55.3,28.97,ESE,112,0.0,-999.0,95,-99.99,,,0.00,Acu-Link.com,2013-11-17 16:36:00,
2013-11-17 11:51:00,56.8,55.4,28.95,ESE,112,0.0,-999.0,95,-99.99,,,0.00,Acu-Link.com,2013-11-17 16:51:00,
2013-11-17 12:07:00,57.0,55.6,28.96,ESE,112,0.0,-999.0,95,-99.99,,,0.00,Acu-Link.com,2013-11-17 17:07:00,
2013-11-17 12:22:00,56.1,54.7,28.95,NW,315,0.0,-999.0,95,-99.99,,,0.00,Acu-Link.com,2013-11-17 17:22:00,
2013-11-17 12:37:00,57.0,56.2,28.94,East,90,1.1,-999.0,97,-99.99,,,0.00,Acu-Link.com,2013-11-17 17:37:00,
2013-11-17 12:52:00,57.2,56.4,28.93,ENE,67,2.2,-999.0,97,-99.99,,,0.00,Acu-Link.com,2013-11-17 17:52:00,
2013-11-17 13:08:00,57.2,56.6,28.92,East,90,2.7,-999.0,98,-99.99,,,0.00,Acu-Link.com,2013-11-17 18:08:00,
2013-11-17 13:23:00,57.4,57.1,28.90,East,90,2.2,-999.0,99,-99.99,,,0.00,Acu-Link.com,2013-11-17 18:23:00,
2013-11-17 13:38:00,57.6,57.3,28.89,East,90,2.7,-999.0,99,-99.99,,,0.00,Acu-Link.com,2013-11-17 18:38:00,
2013-11-17 13:54:00,57.7,57.4,28.89,WNW,292,0.0,-999.0,99,-99.99,,,0.00,Acu-Link.com,2013-11-17 18:54:00,
2013-11-17 14:09:00,58.1,57.8,28.89,East,90,0.0,-999.0,99,-99.99,,,0.00,Acu-Link.com,2013-11-17 19:09:00,
2013-11-17 14:24:00,58.5,58.2,28.89,ESE,112,0.0,-999.0,99,-99.99,,,0.00,Acu-Link.com,2013-11-17 19:24:00,
2013-11-17 14:40:00,58.1,57.8,28.89,East,90,0.0,-999.0,99,-99.99,,,0.00,Acu-Link.com,2013-11-17 19:40:00,
2013-11-17 14:55:00,58.8,58.5,28.88,East,90,2.2,-999.0,99,-99.99,,,0.00,Acu-Link.com,2013-11-17 19:55:00,
2013-11-17 15:10:00,58.8,58.5,28.88,ENE,67,0.0,-999.0,99,-99.99,,,0.00,Acu-Link.com,2013-11-17 20:10:00,
2013-11-17 15:25:00,59.0,58.7,28.87,East,90,1.7,-999.0,99,-99.99,,,0.00,Acu-Link.com,2013-11-17 20:25:00,
2013-11-17 15:41:00,59.0,58.7,28.86,NNE,22,1.1,-999.0,99,-99.99,,,0.00,Acu-Link.com,2013-11-17 20:41:00,
2013-11-17 15:57:00,59.2,58.9,28.86,ESE,112,2.7,-999.0,99,-99.99,,,0.00,Acu-Link.com,2013-11-17 20:57:00,
2013-11-17 16:12:00,59.2,58.9,28.85,East,90,2.2,-999.0,99,-99.99,,,0.00,Acu-Link.com,2013-11-17 21:12:00,
2013-11-17 16:27:00,59.4,59.1,28.85,East,90,2.2,-999.0,99,-99.99,,,0.00,Acu-Link.com,2013-11-17 21:27:00,
2013-11-17 16:42:00,59.4,59.1,28.84,ESE,112,2.2,-999.0,99,-99.99,,,0.00,Acu-Link.com,2013-11-17 21:42:00,
2013-11-17 16:57:00,59.2,58.9,28.84,ENE,67,1.1,-999.0,99,-99.99,,,0.00,Acu-Link.com,2013-11-17 21:57:00,
2013-11-17 17:13:00,59.2,58.9,28.83,ESE,112,2.7,-999.0,99,-99.99,,,0.00,Acu-Link.com,2013-11-17 22:13:00,
2013-11-17 17:28:00,59.0,58.7,28.82,East,90,3.7,-999.0,99,-99.99,,,0.00,Acu-Link.com,2013-11-17 22:28:00,
2013-11-17 17:43:00,59.0,58.7,28.81,NE,45,2.7,-999.0,99,-99.99,,,0.00,Acu-Link.com,2013-11-17 22:43:00,
2013-11-17 17:58:00,58.8,58.5,28.80,East,90,4.2,-999.0,99,-99.99,,,0.00,Acu-Link.com,2013-11-17 22:58:00,
2013-11-17 18:14:00,58.6,58.3,28.80,ESE,112,3.2,-999.0,99,-99.99,,,0.00,Acu-Link.com,2013-11-17 23:14:00,
2013-11-17 18:29:00,58.5,58.2,28.80,ESE,112,3.2,-999.0,99,-99.99,,,0.00,Acu-Link.com,2013-11-17 23:29:00,
2013-11-17 18:44:00,58.3,58.0,28.79,East,90,3.7,-999.0,99,-99.99,,,0.00,Acu-Link.com,2013-11-17 23:44:00,
2013-11-17 19:00:00,58.1,57.8,28.80,East,90,3.7,-999.0,99,-99.99,,,0.00,Acu-Link.com,2013-11-18 00:00:00,
2013-11-17 19:15:00,57.9,57.6,28.80,ESE,112,2.2,-999.0,99,-99.99,,,0.00,Acu-Link.com,2013-11-18 00:15:00,
2013-11-17 19:30:00,57.6,57.3,28.79,ESE,112,2.2,-999.0,99,-99.99,,,0.00,Acu-Link.com,2013-11-18 00:30:00,
2013-11-17 19:46:00,57.4,57.1,28.77,East,90,2.7,-999.0,99,-99.99,,,0.00,Acu-Link.com,2013-11-18 00:46:00,
2013-11-17 20:01:00,57.4,57.1,28.77,East,90,4.2,-999.0,99,-99.99,,,0.00,Acu-Link.com,2013-11-18 01:01:00,
2013-11-17 20:16:00,57.2,56.9,28.76,East,90,3.2,-999.0,99,-99.99,,,0.00,Acu-Link.com,2013-11-18 01:16:00,
2013-11-17 20:31:00,57.2,56.9,28.76,East,90,3.2,-999.0,99,-99.99,,,0.00,Acu-Link.com,2013-11-18 01:31:00,
2013-11-17 20:47:00,57.2,56.9,28.75,NE,45,3.7,-999.0,99,-99.99,,,0.00,Acu-Link.com,2013-11-18 01:47:00,
2013-11-17 21:02:00,57.2,56.9,28.74,East,90,3.2,-999.0,99,-99.99,,,0.00,Acu-Link.com,2013-11-18 02:02:00,
2013-11-17 21:17:00,57.4,57.1,28.73,NNE,22,1.7,-999.0,99,-99.99,,,0.00,Acu-Link.com,2013-11-18 02:17:00,
2013-11-17 21:33:00,57.4,57.1,28.73,ESE,112,1.7,-999.0,99,-99.99,,,0.00,Acu-Link.com,2013-11-18 02:33:00,
2013-11-17 21:48:00,57.4,57.1,28.71,NNE,22,1.7,-999.0,99,-99.99,,,0.00,Acu-Link.com,2013-11-18 02:48:00,
2013-11-17 22:03:00,57.4,57.1,28.69,East,90,2.7,-999.0,99,-99.99,,,0.00,Acu-Link.com,2013-11-18 03:03:00,
2013-11-17 22:19:00,57.4,57.1,28.69,East,90,2.7,-999.0,99,-99.99,,,0.00,Acu-Link.com,2013-11-18 03:19:00,
2013-11-17 22:34:00,57.4,57.1,28.68,East,90,2.2,-999.0,99,-99.99,,,0.00,Acu-Link.com,2013-11-18 03:34:00,
2013-11-17 22:49:00,57.4,57.1,28.67,ESE,112,4.2,-999.0,99,-99.99,,,0.00,Acu-Link.com,2013-11-18 03:49:00,
2013-11-17 23:05:00,57.4,57.1,28.65,NE,45,2.2,-999.0,99,-99.99,,,0.00,Acu-Link.com,2013-11-18 04:05:00,
2013-11-17 23:20:00,57.4,57.1,28.65,ESE,112,3.7,-999.0,99,-99.99,,,0.00,Acu-Link.com,2013-11-18 04:20:00,
2013-11-17 23:35:00,57.4,57.1,28.64,East,90,4.7,-999.0,99,-99.99,,,0.00,Acu-Link.com,2013-11-18 04:35:00,
2013-11-17 23:50:00,57.6,57.3,28.63,East,90,3.2,-999.0,99,-99.99,,,0.00,Acu-Link.com,2013-11-18 04:50:00,